createdAt,value
2023-05-18T07:24:23.065Z,7.80
2023-05-18T07:26:51.965Z,7.70
2023-05-18T07:29:21.048Z,4.70
2023-05-18T07:31:50.093Z,6.00
2023-05-18T07:34:19.075Z,6.10
2023-05-18T07:36:48.133Z,5.80
2023-05-18T07:39:19.808Z,5.00
2023-05-18T07:41:49.925Z,5.70
2023-05-18T07:44:18.916Z,4.10
2023-05-18T07:46:48.171Z,3.90
2023-05-18T07:49:17.406Z,4.80
2023-05-18T07:51:46.603Z,4.30
2023-05-18T07:54:16.356Z,4.60
2023-05-18T07:56:45.504Z,5.20
2023-05-18T07:59:14.493Z,7.10
2023-05-18T08:01:45.210Z,4.70
2023-05-18T08:04:14.555Z,6.30
2023-05-18T08:06:43.728Z,5.00
2023-05-18T08:09:13.124Z,4.50
2023-05-18T08:11:45.264Z,4.90
2023-05-18T08:14:14.659Z,3.70
2023-05-18T08:16:43.726Z,6.40
2023-05-18T08:19:12.584Z,4.80
2023-05-18T08:21:41.346Z,6.30
2023-05-18T08:24:10.512Z,6.60
2023-05-18T08:26:39.268Z,4.30
2023-05-18T08:29:10.587Z,4.10
2023-05-18T08:31:41.755Z,6.50
2023-05-18T08:34:10.587Z,5.60
2023-05-18T08:36:39.715Z,6.30
2023-05-18T08:39:09.617Z,5.40
2023-05-18T08:42:01.394Z,5.10
2023-05-18T08:45:12.003Z,4.40
2023-05-18T08:47:41.729Z,5.40
2023-05-18T08:50:13.921Z,5.00
2023-05-18T08:52:48.340Z,7.30
2023-05-18T08:55:18.876Z,6.60
2023-05-18T08:57:56.562Z,7.00
2023-05-18T09:00:26.008Z,7.30
2023-05-18T09:02:56.140Z,5.70
2023-05-18T09:05:25.022Z,7.10
2023-05-18T09:07:55.473Z,8.70
2023-05-18T09:10:24.681Z,6.80
2023-05-18T09:12:55.261Z,6.90
2023-05-18T09:15:25.587Z,8.10
2023-05-18T09:17:54.524Z,8.00
2023-05-18T09:20:26.524Z,5.30
2023-05-18T09:22:55.300Z,4.90
2023-05-18T09:25:25.468Z,5.30
2023-05-18T09:27:55.864Z,4.40
2023-05-18T09:30:25.624Z,5.70
2023-05-18T09:32:54.767Z,11.30
2023-05-18T09:35:25.730Z,7.10
2023-05-18T09:37:54.882Z,5.40
2023-05-18T09:40:30.242Z,6.50
2023-05-18T09:42:59.489Z,5.60
2023-05-18T09:45:28.969Z,6.10
2023-05-18T09:47:58.245Z,5.70
2023-05-18T09:50:27.751Z,5.50
2023-05-18T09:52:57.984Z,5.90
2023-05-18T09:55:26.889Z,5.70
2023-05-18T09:57:56.902Z,4.00
2023-05-18T10:00:27.106Z,4.90
2023-05-18T10:02:56.837Z,3.90
2023-05-18T10:05:28.075Z,3.70
2023-05-18T10:07:58.256Z,4.40
2023-05-18T10:10:32.331Z,8.20
2023-05-18T10:13:02.061Z,4.90
2023-05-18T10:15:31.076Z,7.20
2023-05-18T10:18:03.703Z,7.20
2023-05-18T10:20:33.056Z,4.20
2023-05-18T10:23:05.746Z,6.90
2023-05-18T10:25:36.365Z,5.50
2023-05-18T10:28:10.472Z,5.60
2023-05-18T10:30:44.018Z,4.80
2023-05-18T10:33:24.713Z,5.30
2023-05-18T10:35:58.693Z,4.70
2023-05-18T10:38:29.143Z,6.20
2023-05-18T10:41:00.556Z,4.60
2023-05-18T10:43:29.457Z,8.80
2023-05-18T10:46:02.768Z,4.70
2023-05-18T10:48:31.832Z,5.20
2023-05-18T10:51:01.153Z,6.80
2023-05-18T10:53:30.137Z,6.40
2023-05-18T10:55:58.895Z,6.80
2023-05-18T10:58:30.980Z,6.20
2023-05-18T11:03:33.389Z,6.60
2023-05-18T11:06:15.102Z,6.90
2023-05-18T11:08:51.173Z,7.00
2023-05-18T11:11:26.000Z,7.80
2023-05-18T11:13:54.917Z,6.40
2023-05-18T11:16:34.914Z,5.30
2023-05-18T11:19:09.572Z,5.40
2023-05-18T11:21:41.603Z,5.10
2023-05-18T11:24:32.482Z,6.10
2023-05-18T11:27:12.419Z,4.10
2023-05-18T11:30:03.752Z,8.70
2023-05-18T11:32:37.321Z,4.90
2023-05-18T11:35:11.521Z,5.90
2023-05-18T11:37:41.499Z,7.20
2023-05-18T11:40:47.348Z,4.60
2023-05-18T11:43:25.151Z,7.30
2023-05-18T11:45:59.741Z,6.60
2023-05-18T11:48:31.954Z,8.20
2023-05-18T11:51:01.464Z,4.20
2023-05-18T11:53:30.677Z,6.70
2023-05-18T11:56:00.276Z,4.60
2023-05-18T11:58:32.119Z,4.90
2023-05-18T12:01:03.318Z,7.10
2023-05-18T12:03:33.354Z,5.10
2023-05-18T12:06:02.516Z,9.20
2023-05-18T12:08:31.659Z,5.60
2023-05-18T12:11:02.587Z,12.20
2023-05-18T12:13:32.048Z,8.50
2023-05-18T12:16:01.992Z,8.70
2023-05-18T12:18:35.414Z,8.80
2023-05-18T12:21:05.694Z,5.40
2023-05-18T12:23:38.593Z,6.00
2023-05-18T12:26:07.835Z,7.20
2023-05-18T12:28:36.922Z,4.90
2023-05-18T12:31:08.859Z,7.40
2023-05-18T12:33:38.259Z,4.90
2023-05-18T12:36:11.826Z,8.10
2023-05-18T12:38:41.510Z,4.70
2023-05-18T12:41:10.400Z,6.90
2023-05-18T12:43:39.342Z,7.00
2023-05-18T12:46:08.364Z,6.30
2023-05-18T12:48:45.534Z,8.10
2023-05-18T12:51:20.813Z,6.70
2023-05-18T12:53:50.916Z,6.40
2023-05-18T12:56:21.307Z,4.90
2023-05-18T12:59:04.936Z,5.70
2023-05-18T13:01:44.262Z,8.30
2023-05-18T13:04:13.821Z,6.20
2023-05-18T13:06:43.432Z,7.10
2023-05-18T13:09:14.009Z,8.30
2023-05-18T13:12:03.634Z,7.30
2023-05-18T13:14:38.792Z,7.30
2023-05-18T13:17:08.069Z,6.80
2023-05-18T13:19:37.043Z,8.40
2023-05-18T13:22:05.982Z,8.70
2023-05-18T13:24:34.901Z,7.80
2023-05-18T13:27:04.929Z,8.50
2023-05-18T13:29:34.696Z,65.70
2023-05-18T13:32:03.865Z,9.70
2023-05-18T13:34:32.809Z,9.80
2023-05-18T13:37:01.760Z,7.40
2023-05-18T13:39:30.532Z,18.50
2023-05-18T13:41:59.857Z,10.40
2023-05-18T13:44:28.666Z,12.60
2023-05-18T13:46:57.513Z,4.70
2023-05-18T13:49:26.411Z,7.40
2023-05-18T13:51:55.403Z,7.40
2023-05-18T13:54:24.187Z,9.50
2023-05-18T13:56:53.125Z,22.40
2023-05-18T13:59:22.753Z,16.60
2023-05-18T14:01:52.419Z,25.00
2023-05-18T14:04:21.697Z,6.80
2023-05-18T14:06:54.422Z,11.70
2023-05-18T14:09:23.461Z,15.40
2023-05-18T14:11:53.811Z,8.50
2023-05-18T14:14:23.719Z,8.90
2023-05-18T14:16:52.797Z,7.80
2023-05-18T14:19:21.681Z,6.50
2023-05-18T14:21:50.626Z,6.70
2023-05-18T14:24:19.999Z,6.90
2023-05-18T14:26:48.796Z,12.30
2023-05-18T14:29:17.527Z,6.90
2023-05-18T14:31:46.918Z,9.00
2023-05-18T14:34:15.873Z,8.70
2023-05-18T14:36:44.799Z,5.80
2023-05-18T14:39:13.723Z,9.10
2023-05-18T14:41:42.525Z,10.90
2023-05-18T14:44:11.512Z,8.30
2023-05-18T14:46:41.391Z,8.30
2023-05-18T14:49:10.173Z,9.10
2023-05-18T14:51:39.011Z,17.10
2023-05-18T14:54:07.843Z,11.80
2023-05-18T14:56:36.725Z,8.70
2023-05-18T14:59:05.661Z,7.90
2023-05-18T15:01:34.392Z,7.70
2023-05-18T15:04:03.373Z,6.50
2023-05-18T15:06:33.490Z,6.30
2023-05-18T15:09:02.162Z,6.30
2023-05-18T15:11:30.799Z,8.50
2023-05-18T15:13:59.544Z,7.90
2023-05-18T15:16:28.424Z,6.30
2023-05-18T15:18:57.233Z,8.70
2023-05-18T15:21:25.996Z,7.80
2023-05-18T15:23:54.651Z,7.40
2023-05-18T15:26:23.384Z,7.00
2023-05-18T15:28:52.117Z,6.30
2023-05-18T15:31:20.932Z,7.40
2023-05-18T15:33:49.715Z,8.70
2023-05-18T15:36:18.679Z,6.90
2023-05-18T15:38:47.593Z,10.70
2023-05-18T15:41:16.353Z,9.60
2023-05-18T15:43:46.856Z,8.90
2023-05-18T15:46:15.847Z,14.20
2023-05-18T15:48:44.769Z,11.00
2023-05-18T15:51:13.938Z,11.90
2023-05-18T15:53:43.429Z,13.20
2023-05-18T15:56:12.486Z,9.70
2023-05-18T15:58:41.581Z,7.60
2023-05-18T16:01:10.546Z,8.60
2023-05-18T16:03:39.527Z,9.80
2023-05-18T16:06:08.632Z,9.10
2023-05-18T16:08:37.668Z,9.90
2023-05-18T16:11:07.275Z,8.30
2023-05-18T16:13:36.231Z,10.30
2023-05-18T16:16:06.783Z,11.30
2023-05-18T16:18:35.628Z,10.40
2023-05-18T16:21:04.591Z,13.60
2023-05-18T16:23:33.325Z,10.40
2023-05-18T16:26:05.448Z,10.10
2023-05-18T16:31:08.172Z,11.80
2023-05-18T16:33:38.306Z,10.90
2023-05-18T16:36:07.849Z,11.70
2023-05-18T16:38:37.759Z,12.50
2023-05-18T16:41:07.057Z,9.90
2023-05-18T16:43:36.149Z,16.40
2023-05-18T16:46:05.186Z,13.30
2023-05-18T16:48:34.003Z,13.10
2023-05-18T16:51:06.881Z,9.80
2023-05-18T16:53:36.467Z,14.30
2023-05-18T16:56:05.644Z,11.70
2023-05-18T16:58:34.326Z,14.40
2023-05-18T17:01:04.299Z,11.70
2023-05-18T17:03:38.673Z,12.20
2023-05-18T17:06:08.695Z,12.80
2023-05-18T17:08:37.588Z,11.20
2023-05-18T17:11:06.321Z,13.60
2023-05-18T17:13:35.097Z,17.80
2023-05-18T17:16:04.813Z,24.10
2023-05-18T17:18:33.586Z,18.00
2023-05-18T17:21:02.610Z,17.90
2023-05-18T17:23:31.945Z,13.70
2023-05-18T17:26:05.906Z,16.40
2023-05-18T17:28:35.218Z,16.90
2023-05-18T17:31:04.258Z,15.70
2023-05-18T17:33:33.036Z,15.40
2023-05-18T17:36:01.822Z,12.60
2023-05-18T17:38:31.022Z,13.40
2023-05-18T17:40:59.737Z,16.70
2023-05-18T17:43:28.520Z,11.10
2023-05-18T17:45:57.307Z,12.70
2023-05-18T17:48:26.064Z,12.00
2023-05-18T17:50:54.853Z,12.60
2023-05-18T17:53:23.630Z,12.40
2023-05-18T17:55:53.122Z,13.50
2023-05-18T17:58:21.989Z,10.70
2023-05-18T18:00:50.746Z,11.00
2023-05-18T18:03:21.117Z,11.30
2023-05-18T18:05:49.979Z,13.20
2023-05-18T18:08:18.778Z,12.30
2023-05-18T18:10:47.570Z,11.10
2023-05-18T18:13:16.302Z,11.80
2023-05-18T18:15:45.168Z,12.70
2023-05-18T18:18:14.076Z,19.20
2023-05-18T18:20:43.123Z,13.60
2023-05-18T18:23:11.979Z,11.70
2023-05-18T18:25:40.852Z,13.50
2023-05-18T18:28:14.704Z,15.50
2023-05-18T18:30:44.857Z,15.30
2023-05-18T18:33:14.781Z,10.70
2023-05-18T18:35:43.881Z,13.60
2023-05-18T18:38:15.734Z,10.80
2023-05-18T18:40:44.653Z,24.00
2023-05-18T18:43:13.702Z,16.10
2023-05-18T18:45:42.530Z,14.30
2023-05-18T18:48:11.426Z,22.90
2023-05-18T18:50:40.257Z,27.30
2023-05-18T18:53:08.979Z,26.20
2023-05-18T18:55:37.738Z,21.80
2023-05-18T18:58:06.466Z,23.70
2023-05-18T19:00:35.310Z,23.20
2023-05-18T19:03:04.374Z,18.70
2023-05-18T19:05:33.510Z,22.20
2023-05-18T19:08:02.658Z,22.00
2023-05-18T19:10:33.077Z,20.40
2023-05-18T19:13:05.831Z,24.40
2023-05-18T19:15:35.367Z,22.30
2023-05-18T19:18:04.761Z,20.10
2023-05-18T19:20:34.233Z,19.80
2023-05-18T19:23:04.911Z,22.00
2023-05-18T19:25:33.873Z,26.40
2023-05-18T19:28:02.829Z,20.90
2023-05-18T19:30:31.507Z,20.70
2023-05-18T19:33:00.684Z,21.60
2023-05-18T19:35:31.504Z,23.60
2023-05-18T19:38:02.506Z,24.80
2023-05-18T19:40:31.387Z,22.30
2023-05-18T19:43:01.742Z,23.20
2023-05-18T19:45:30.990Z,26.20
2023-05-18T19:48:00.231Z,27.90
2023-05-18T19:50:29.041Z,28.20
2023-05-18T19:52:57.745Z,23.90
2023-05-18T19:55:26.598Z,21.70
2023-05-18T19:57:55.347Z,23.20
2023-05-18T20:00:25.736Z,28.10
2023-05-18T20:02:54.602Z,25.00
2023-05-18T20:05:25.664Z,28.20
2023-05-18T20:07:54.496Z,27.00
2023-05-18T20:10:23.235Z,23.80
2023-05-18T20:12:52.360Z,23.20
2023-05-18T20:15:21.265Z,29.40
2023-05-18T20:17:50.128Z,24.30
2023-05-18T20:20:20.574Z,23.90
2023-05-18T20:22:49.618Z,24.00
2023-05-18T20:25:19.456Z,25.70
2023-05-18T20:27:48.938Z,24.60
2023-05-18T20:30:19.106Z,22.80
2023-05-18T20:32:48.508Z,25.10
2023-05-18T20:35:17.587Z,24.90
2023-05-18T20:37:46.962Z,24.10
2023-05-18T20:40:15.699Z,23.60
2023-05-18T20:42:44.450Z,19.50
2023-05-18T20:45:14.021Z,26.00
2023-05-18T20:47:42.970Z,24.90
2023-05-18T20:50:12.229Z,20.50
2023-05-18T20:52:41.245Z,21.40
2023-05-18T20:55:10.544Z,15.50
2023-05-18T20:57:40.278Z,26.30
2023-05-18T21:00:10.447Z,21.80
2023-05-18T21:02:48.735Z,22.00
2023-05-18T21:05:18.960Z,17.30
2023-05-18T21:07:48.950Z,21.90
2023-05-18T21:10:17.766Z,24.30
2023-05-18T21:12:46.495Z,25.90
2023-05-18T21:15:15.221Z,21.20
2023-05-18T21:17:44.040Z,23.30
2023-05-18T21:20:13.024Z,20.10
2023-05-18T21:22:41.734Z,22.30
2023-05-18T21:25:10.738Z,21.70
2023-05-18T21:27:40.193Z,22.30
2023-05-18T21:30:10.006Z,23.40
2023-05-18T21:32:38.834Z,23.00
2023-05-18T21:35:07.934Z,21.70
2023-05-18T21:37:37.591Z,23.80
2023-05-18T21:40:19.563Z,21.90
2023-05-18T21:42:48.485Z,26.20
2023-05-18T21:45:18.450Z,16.80
2023-05-18T21:47:49.312Z,18.50
2023-05-18T21:50:18.467Z,22.00
2023-05-18T21:52:47.364Z,20.30
2023-05-18T21:55:16.115Z,20.10
2023-05-18T21:57:44.900Z,20.20
2023-05-18T22:00:16.871Z,19.70
2023-05-18T22:02:45.501Z,20.30
2023-05-18T22:05:14.252Z,23.80
2023-05-18T22:07:43.071Z,24.30
2023-05-18T22:10:12.005Z,22.60
2023-05-18T22:12:43.674Z,21.30
2023-05-18T22:15:12.924Z,22.40
2023-05-18T22:17:41.734Z,24.50
2023-05-18T22:20:11.683Z,21.70
2023-05-18T22:22:41.354Z,20.30
2023-05-18T22:25:10.353Z,20.00
2023-05-18T22:27:39.261Z,23.40
2023-05-18T22:30:09.297Z,22.50
2023-05-18T22:32:38.782Z,24.60
2023-05-18T22:35:08.927Z,21.00
2023-05-18T22:37:37.901Z,24.40
2023-05-18T22:40:08.126Z,22.00
2023-05-18T22:42:36.912Z,25.30
2023-05-18T22:45:06.350Z,22.20
2023-05-18T22:47:35.369Z,23.50
2023-05-18T22:50:04.307Z,25.30
2023-05-18T22:52:35.210Z,21.50
2023-05-18T22:55:05.818Z,24.30
2023-05-18T22:57:34.538Z,21.70
2023-05-18T23:00:03.712Z,21.50
2023-05-18T23:02:32.522Z,23.30
2023-05-18T23:05:02.050Z,21.80
2023-05-18T23:07:36.370Z,20.20
2023-05-18T23:10:11.400Z,21.60
2023-05-18T23:12:40.497Z,17.00
2023-05-18T23:15:10.899Z,21.40
2023-05-18T23:17:39.751Z,20.60
2023-05-18T23:20:10.608Z,21.10
2023-05-18T23:23:35.325Z,22.30
2023-05-18T23:26:22.894Z,22.80
2023-05-18T23:29:10.988Z,22.00
2023-05-18T23:31:39.927Z,22.00
2023-05-18T23:34:09.070Z,26.20
2023-05-18T23:36:39.092Z,24.30
2023-05-18T23:39:08.339Z,23.30
2023-05-18T23:41:37.968Z,22.10
2023-05-18T23:44:07.623Z,23.30
2023-05-18T23:46:37.219Z,21.80
2023-05-18T23:49:06.627Z,19.30
2023-05-18T23:51:36.843Z,24.30
2023-05-18T23:54:07.544Z,23.50
2023-05-18T23:56:36.937Z,24.00
2023-05-18T23:59:06.996Z,22.30
